Wales, North Dakota
Current Conditions -  °F | °C
As of 10:55 AM on Saturday 22 Nov 2014 (Local Time) from KD55 Reporting Station
Moderate Fog Moderate Fog  
Wind Chill: 24°   Ceiling: 100
Heat Index: 32°   Visibility: 0.5mi
Dew Point: 30°   Wind: 9mph
Humidity: 93%   Direction: 90°E
Pressure: 29.52"   Gusts: NA
Location:  48.9°N, 98.6°W
Report Text: KD55 221655Z AUTO 09008KT 1/2SM FG OVC001 00/M01 A2952 RMK AO2
Loading
Personal Weather Stations






























Interactive Weather Map New forecast layout! Learn more

10-Day Weather Forecast

Advertisements
Track Severe Weather on mobile